TimeCDT,TemperatureF,Dew PointF,Humidity,Sea Level PressureIn,VisibilityMPH,Wind Direction,Wind SpeedMPH,Gust SpeedMPH,PrecipitationIn,Events,Conditions,WindDirDegrees,DateUTC
12:51 AM,36.0,16.0,44,30.37,10.0,North,16.1,23.0,N/A,,Mostly Cloudy,350,2014-03-23 05:51:00
1:51 AM,35.1,14.0,42,30.38,10.0,North,11.5,-,N/A,,Mostly Cloudy,350,2014-03-23 06:51:00
2:51 AM,34.0,12.0,40,30.38,10.0,North,13.8,-,N/A,,Overcast,360,2014-03-23 07:51:00
3:51 AM,32.0,14.0,48,30.39,10.0,North,16.1,24.2,N/A,,Mostly Cloudy,10,2014-03-23 08:51:00
4:51 AM,30.9,14.0,50,30.41,10.0,North,10.4,21.9,N/A,,Mostly Cloudy,360,2014-03-23 09:51:00
5:51 AM,30.0,12.9,49,30.44,10.0,North,17.3,-,N/A,,Mostly Cloudy,350,2014-03-23 10:51:00
6:51 AM,28.9,12.9,51,30.46,10.0,North,15.0,25.3,N/A,,Mostly Cloudy,350,2014-03-23 11:51:00
7:51 AM,28.0,12.9,53,30.47,10.0,North,11.5,-,N/A,,Scattered Clouds,360,2014-03-23 12:51:00
8:51 AM,30.0,14.0,51,30.48,10.0,North,9.2,19.6,N/A,,Scattered Clouds,350,2014-03-23 13:51:00
9:51 AM,30.9,14.0,50,30.50,10.0,North,13.8,-,N/A,,Partly Cloudy,10,2014-03-23 14:51:00
10:51 AM,33.1,12.9,43,30.51,10.0,North,13.8,-,N/A,,Partly Cloudy,360,2014-03-23 15:51:00
11:51 AM,36.0,10.9,36,30.49,10.0,North,9.2,-,N/A,,Clear,10,2014-03-23 16:51:00
12:51 PM,37.0,10.9,34,30.47,10.0,NNE,9.2,-,N/A,,Clear,20,2014-03-23 17:51:00
1:51 PM,42.1,10.0,27,30.45,10.0,NNW,11.5,17.3,N/A,,Clear,330,2014-03-23 18:51:00
2:51 PM,41.0,10.0,28,30.43,10.0,WNW,10.4,17.3,N/A,,Clear,300,2014-03-23 19:51:00
3:51 PM,42.1,10.0,27,30.41,10.0,NNW,12.7,18.4,N/A,,Clear,330,2014-03-23 20:51:00
4:51 PM,43.0,8.1,24,30.40,10.0,NNW,11.5,-,N/A,,Clear,330,2014-03-23 21:51:00
5:51 PM,42.1,9.0,26,30.39,10.0,NW,8.1,-,N/A,,Clear,310,2014-03-23 22:51:00
6:51 PM,39.0,10.0,30,30.39,10.0,NW,9.2,-,N/A,,Clear,320,2014-03-23 23:51:00
7:51 PM,37.0,7.0,29,30.40,10.0,North,8.1,-,N/A,,Clear,10,2014-03-24 00:51:00
8:51 PM,36.0,7.0,30,30.41,10.0,NNE,5.8,-,N/A,,Clear,20,2014-03-24 01:51:00
9:51 PM,35.1,8.1,33,30.41,10.0,NNE,5.8,-,N/A,,Clear,20,2014-03-24 02:51:00
10:51 PM,30.9,9.0,40,30.41,10.0,East,5.8,-,N/A,,Clear,80,2014-03-24 03:51:00
11:51 PM,32.0,10.0,40,30.41,10.0,ENE,3.5,-,N/A,,Clear,60,2014-03-24 04:51:00